Airport
Ashgabat Airport (UTAA)

 UTAA / ASB
Central Asia CFPU
Ashkhabad (UTAA)
Ashkhabad (UTAA)
 37.98680, 58.36100  / 692 ft

 UTAA 220700Z 09010KT 060V120 7000 NSC 11/07 Q1022 R88/70D NOSIG
 TAF UTAA 212245Z 2200/2224 12012KT 1000 BR BKN003 TEMPO 2200/2204 0300 FG VV002 BECMG 2205/2206 12018KT 6000 SCT020 BKN100 TEMPO 2208/2214 09012G22KT
UTAA_aip_1705
show charts
Scenery title Scenery type Flight Simulator 9 Flight Simulator X Prepar3D v2 Prepar3D v3 Prepar3D v4 xPlane
UTAA for FS9 ver.1.0 freeware
UTAA for FSX ver1.0.2 freeware
UTAA for P3Dv2/3/4 ver1.0.2 freeware
UTAA for X-Plane11 freeware

 

 



2020 © VATRUS division (Privacy Policy)